sensor_id;sensor_type;location;lat;lon;timestamp;pressure;altitude;pressure_sealevel;temperature;humidity
29839;BME280;18669;53.356;-1.464;2023-02-01T00:02:05;100958.56;;;7.56;100.00
29839;BME280;18669;53.356;-1.464;2023-02-01T00:04:31;100949.84;;;7.59;100.00
29839;BME280;18669;53.356;-1.464;2023-02-01T00:06:57;100948.94;;;7.63;100.00
29839;BME280;18669;53.356;-1.464;2023-02-01T00:09:23;100945.44;;;7.69;100.00
29839;BME280;18669;53.356;-1.464;2023-02-01T00:11:49;100937.50;;;7.84;100.00
29839;BME280;18669;53.356;-1.464;2023-02-01T00:14:15;100958.53;;;7.75;100.00
29839;BME280;18669;53.356;-1.464;2023-02-01T00:16:41;100974.25;;;7.72;100.00
29839;BME280;18669;53.356;-1.464;2023-02-01T00:19:11;100958.47;;;7.86;100.00
29839;BME280;18669;53.356;-1.464;2023-02-01T00:21:38;100949.72;;;7.82;100.00
29839;BME280;18669;53.356;-1.464;2023-02-01T00:24:04;100959.28;;;7.99;100.00
29839;BME280;18669;53.356;-1.464;2023-02-01T00:26:41;100981.09;;;7.96;100.00
29839;BME280;18669;53.356;-1.464;2023-02-01T00:29:14;100993.34;;;7.97;100.00
29839;BME280;18669;53.356;-1.464;2023-02-01T00:31:41;100996.88;;;7.90;100.00
29839;BME280;18669;53.356;-1.464;2023-02-01T00:34:12;100989.88;;;7.90;100.00
29839;BME280;18669;53.356;-1.464;2023-02-01T00:36:39;100973.31;;;7.85;100.00
29839;BME280;18669;53.356;-1.464;2023-02-01T00:39:06;100986.44;;;7.74;100.00
29839;BME280;18669;53.356;-1.464;2023-02-01T00:41:32;100982.91;;;7.85;100.00
29839;BME280;18669;53.356;-1.464;2023-02-01T00:43:58;100994.28;;;7.84;100.00
29839;BME280;18669;53.356;-1.464;2023-02-01T00:46:24;100982.91;;;7.85;100.00
29839;BME280;18669;53.356;-1.464;2023-02-01T00:48:51;100990.78;;;7.85;100.00
29839;BME280;18669;53.356;-1.464;2023-02-01T00:51:18;100987.22;;;8.00;100.00
29839;BME280;18669;53.356;-1.464;2023-02-01T00:53:45;100971.56;;;7.86;100.00
29839;BME280;18669;53.356;-1.464;2023-02-01T00:56:11;100963.72;;;7.83;100.00
29839;BME280;18669;53.356;-1.464;2023-02-01T00:58:38;100959.34;;;7.85;100.00
29839;BME280;18669;53.356;-1.464;2023-02-01T01:01:15;100959.25;;;8.00;100.00
29839;BME280;18669;53.356;-1.464;2023-02-01T01:03:48;100959.31;;;7.91;100.00
29839;BME280;18669;53.356;-1.464;2023-02-01T01:06:20;100948.81;;;7.93;100.00
29839;BME280;18669;53.356;-1.464;2023-02-01T01:08:47;100949.69;;;7.95;100.00
29839;BME280;18669;53.356;-1.464;2023-02-01T01:11:18;100946.16;;;8.02;100.00
29839;BME280;18669;53.356;-1.464;2023-02-01T01:13:50;100958.41;;;7.98;100.00
29839;BME280;18669;53.356;-1.464;2023-02-01T01:16:17;100941.00;;;7.86;100.00
29839;BME280;18669;53.356;-1.464;2023-02-01T01:18:43;100931.41;;;7.82;100.00
29839;BME280;18669;53.356;-1.464;2023-02-01T01:21:12;100949.69;;;7.98;100.00
29839;BME280;18669;53.356;-1.464;2023-02-01T01:23:38;100927.88;;;7.91;100.00
29839;BME280;18669;53.356;-1.464;2023-02-01T01:26:16;100941.81;;;7.99;100.00
29839;BME280;18669;53.356;-1.464;2023-02-01T01:28:43;100946.31;;;7.63;100.00
29839;BME280;18669;53.356;-1.464;2023-02-01T01:31:13;100955.03;;;7.73;100.00
29839;BME280;18669;53.356;-1.464;2023-02-01T01:33:40;100941.97;;;7.57;100.00
29839;BME280;18669;53.356;-1.464;2023-02-01T01:36:08;100938.50;;;7.51;100.00
29839;BME280;18669;53.356;-1.464;2023-02-01T01:38:37;100942.00;;;7.46;100.00
29839;BME280;18669;53.356;-1.464;2023-02-01T01:41:03;100943.78;;;7.32;100.00
29839;BME280;18669;53.356;-1.464;2023-02-01T01:43:50;100942.03;;;7.40;100.00
29839;BME280;18669;53.356;-1.464;2023-02-01T01:46:21;100924.59;;;7.30;100.00
29839;BME280;18669;53.356;-1.464;2023-02-01T01:48:52;100933.34;;;7.24;100.00
29839;BME280;18669;53.356;-1.464;2023-02-01T01:51:21;100925.50;;;7.20;100.00
29839;BME280;18669;53.356;-1.464;2023-02-01T01:53:56;100923.72;;;7.32;100.00
29839;BME280;18669;53.356;-1.464;2023-02-01T01:56:25;100905.41;;;7.23;100.00
29839;BME280;18669;53.356;-1.464;2023-02-01T01:58:52;100906.28;;;7.25;100.00
29839;BME280;18669;53.356;-1.464;2023-02-01T02:01:19;100901.94;;;7.24;100.00
29839;BME280;18669;53.356;-1.464;2023-02-01T02:03:45;100901.91;;;7.30;100.00
29839;BME280;18669;53.356;-1.464;2023-02-01T02:08:56;100904.53;;;7.30;100.00
29839;BME280;18669;53.356;-1.464;2023-02-01T02:11:22;100911.53;;;7.28;100.00
29839;BME280;18669;53.356;-1.464;2023-02-01T02:13:50;100896.66;;;7.41;100.00
29839;BME280;18669;53.356;-1.464;2023-02-01T02:25:13;100888.78;;;7.46;100.00
29839;BME280;18669;53.356;-1.464;2023-02-01T02:33:42;100885.34;;;7.35;100.00
29839;BME280;18669;53.356;-1.464;2023-02-01T02:38:52;100873.06;;;7.46;100.00
29839;BME280;18669;53.356;-1.464;2023-02-01T02:41:32;100881.81;;;7.46;100.00
29839;BME280;18669;53.356;-1.464;2023-02-01T02:44:34;100873.94;;;7.50;100.00
29839;BME280;18669;53.356;-1.464;2023-02-01T02:47:28;100880.91;;;7.49;100.00
29839;BME280;18669;53.356;-1.464;2023-02-01T02:50:05;100880.91;;;7.46;100.00
29839;BME280;18669;53.356;-1.464;2023-02-01T02:53:02;100869.56;;;7.49;100.00
29839;BME280;18669;53.356;-1.464;2023-02-01T02:55:50;100843.41;;;7.49;100.00
29839;BME280;18669;53.356;-1.464;2023-02-01T02:58:17;100863.53;;;7.36;100.00
29839;BME280;18669;53.356;-1.464;2023-02-01T03:01:02;100866.94;;;7.47;100.00
29839;BME280;18669;53.356;-1.464;2023-02-01T03:03:48;100846.91;;;7.41;100.00
29839;BME280;18669;53.356;-1.464;2023-02-01T03:06:34;100846.09;;;7.28;100.00
29839;BME280;18669;53.356;-1.464;2023-02-01T03:09:01;100836.41;;;7.46;100.00
29839;BME280;18669;53.356;-1.464;2023-02-01T03:11:31;100831.22;;;7.41;100.00
29839;BME280;18669;53.356;-1.464;2023-02-01T03:14:21;100827.75;;;7.35;100.00
29839;BME280;18669;53.356;-1.464;2023-02-01T03:16:51;100832.09;;;7.34;100.00
29839;BME280;18669;53.356;-1.464;2023-02-01T03:19:39;100828.59;;;7.44;100.00
29839;BME280;18669;53.356;-1.464;2023-02-01T03:22:12;100837.34;;;7.37;100.00
29839;BME280;18669;53.356;-1.464;2023-02-01T03:24:44;100850.41;;;7.37;100.00
29839;BME280;18669;53.356;-1.464;2023-02-01T03:27:40;100832.94;;;7.44;100.00
29839;BME280;18669;53.356;-1.464;2023-02-01T03:32:44;100820.78;;;7.26;100.00
29839;BME280;18669;53.356;-1.464;2023-02-01T03:35:36;100818.13;;;7.35;100.00
29839;BME280;18669;53.356;-1.464;2023-02-01T03:38:31;100791.13;;;7.30;100.00
29839;BME280;18669;53.356;-1.464;2023-02-01T03:41:03;100812.09;;;7.19;100.00
29839;BME280;18669;53.356;-1.464;2023-02-01T03:43:36;100822.53;;;7.30;100.00
29839;BME280;18669;53.356;-1.464;2023-02-01T03:46:09;100822.53;;;7.31;100.00
29839;BME280;18669;53.356;-1.464;2023-02-01T03:48:38;100811.19;;;7.29;100.00
29839;BME280;18669;53.356;-1.464;2023-02-01T03:51:06;100836.47;;;7.29;100.00
29839;BME280;18669;53.356;-1.464;2023-02-01T03:53:33;100824.28;;;7.29;100.00
29839;BME280;18669;53.356;-1.464;2023-02-01T03:56:02;100826.88;;;7.32;100.00
29839;BME280;18669;53.356;-1.464;2023-02-01T03:58:28;100826.88;;;7.36;100.00
29839;BME280;18669;53.356;-1.464;2023-02-01T04:00:57;100810.28;;;7.40;100.00
29839;BME280;18669;53.356;-1.464;2023-02-01T04:03:25;100826.00;;;7.40;100.00
29839;BME280;18669;53.356;-1.464;2023-02-01T04:05:52;100805.06;;;7.40;100.00
29839;BME280;18669;53.356;-1.464;2023-02-01T04:08:19;100803.28;;;7.46;100.00
29839;BME280;18669;53.356;-1.464;2023-02-01T04:10:46;100794.56;;;7.38;100.00
29839;BME280;18669;53.356;-1.464;2023-02-01T04:13:12;100796.34;;;7.35;100.00
29839;BME280;18669;53.356;-1.464;2023-02-01T04:15:38;100802.31;;;7.58;100.00
29839;BME280;18669;53.356;-1.464;2023-02-01T04:18:04;100791.03;;;7.44;100.00
29839;BME280;18669;53.356;-1.464;2023-02-01T04:20:31;100793.72;;;7.36;100.00
29839;BME280;18669;53.356;-1.464;2023-02-01T04:22:57;100794.63;;;7.30;100.00
29839;BME280;18669;53.356;-1.464;2023-02-01T04:25:23;100773.69;;;7.30;100.00
29839;BME280;18669;53.356;-1.464;2023-02-01T04:27:49;100758.84;;;7.31;100.00
29839;BME280;18669;53.356;-1.464;2023-02-01T04:30:15;100750.97;;;7.31;100.00
29839;BME280;18669;53.356;-1.464;2023-02-01T04:32:41;100745.63;;;7.51;100.00
29839;BME280;18669;53.356;-1.464;2023-02-01T04:35:07;100737.88;;;7.37;100.00
29839;BME280;18669;53.356;-1.464;2023-02-01T04:37:34;100753.56;;;7.40;100.00
29839;BME280;18669;53.356;-1.464;2023-02-01T04:40:00;100739.63;;;7.37;100.00
29839;BME280;18669;53.356;-1.464;2023-02-01T04:42:27;100751.00;;;7.28;100.00
29839;BME280;18669;53.356;-1.464;2023-02-01T04:44:53;100754.50;;;7.28;100.00
29839;BME280;18669;53.356;-1.464;2023-02-01T04:47:19;100762.34;;;7.27;100.00
29839;BME280;18669;53.356;-1.464;2023-02-01T04:49:45;100759.72;;;7.27;100.00
29839;BME280;18669;53.356;-1.464;2023-02-01T04:52:11;100778.91;;;7.30;100.00
29839;BME280;18669;53.356;-1.464;2023-02-01T04:54:37;100774.56;;;7.29;100.00
29839;BME280;18669;53.356;-1.464;2023-02-01T04:57:03;100785.00;;;7.34;100.00
29839;BME280;18669;53.356;-1.464;2023-02-01T04:59:29;100762.34;;;7.28;100.00
29839;BME280;18669;53.356;-1.464;2023-02-01T05:01:55;100757.97;;;7.34;100.00
29839;BME280;18669;53.356;-1.464;2023-02-01T05:04:21;100768.44;;;7.29;100.00
29839;BME280;18669;53.356;-1.464;2023-02-01T05:06:47;100773.69;;;7.26;100.00
29839;BME280;18669;53.356;-1.464;2023-02-01T05:09:13;100775.44;;;7.28;100.00
29839;BME280;18669;53.356;-1.464;2023-02-01T05:11:39;100752.75;;;7.29;100.00
29839;BME280;18669;53.356;-1.464;2023-02-01T05:14:23;100744.88;;;7.29;100.00
29839;BME280;18669;53.356;-1.464;2023-02-01T05:16:49;100777.13;;;7.37;100.00
29839;BME280;18669;53.356;-1.464;2023-02-01T05:19:15;100778.00;;;7.39;100.00
29839;BME280;18669;53.356;-1.464;2023-02-01T05:21:41;100791.97;;;7.35;100.00
29839;BME280;18669;53.356;-1.464;2023-02-01T05:24:08;100788.47;;;7.38;100.00
29839;BME280;18669;53.356;-1.464;2023-02-01T05:26:45;100794.59;;;7.32;100.00
29839;BME280;18669;53.356;-1.464;2023-02-01T05:29:12;100781.50;;;7.37;100.00
29839;BME280;18669;53.356;-1.464;2023-02-01T05:31:38;100792.84;;;7.36;100.00
29839;BME280;18669;53.356;-1.464;2023-02-01T05:34:05;100791.97;;;7.38;100.00
29839;BME280;18669;53.356;-1.464;2023-02-01T05:36:31;100784.09;;;7.41;100.00
29839;BME280;18669;53.356;-1.464;2023-02-01T05:38:57;100825.03;;;7.53;100.00
29839;BME280;18669;53.356;-1.464;2023-02-01T05:41:23;100808.53;;;7.37;100.00
29839;BME280;18669;53.356;-1.464;2023-02-01T05:43:49;100816.38;;;7.43;100.00
29839;BME280;18669;53.356;-1.464;2023-02-01T05:46:15;100803.28;;;7.43;100.00
29839;BME280;18669;53.356;-1.464;2023-02-01T05:48:42;100808.50;;;7.46;100.00
29839;BME280;18669;53.356;-1.464;2023-02-01T05:51:09;100821.56;;;7.51;100.00
29839;BME280;18669;53.356;-1.464;2023-02-01T05:53:35;100811.13;;;7.42;100.00
29839;BME280;18669;53.356;-1.464;2023-02-01T05:56:01;100826.78;;;7.51;100.00
29839;BME280;18669;53.356;-1.464;2023-02-01T05:58:27;100829.41;;;7.56;100.00
29839;BME280;18669;53.356;-1.464;2023-02-01T06:00:56;100819.78;;;7.56;100.00
29839;BME280;18669;53.356;-1.464;2023-02-01T06:03:24;100810.25;;;7.41;100.00
29839;BME280;18669;53.356;-1.464;2023-02-01T06:05:50;100809.38;;;7.42;100.00
29839;BME280;18669;53.356;-1.464;2023-02-01T06:08:16;100800.69;;;7.39;100.00
29839;BME280;18669;53.356;-1.464;2023-02-01T06:10:43;100821.56;;;7.53;100.00
29839;BME280;18669;53.356;-1.464;2023-02-01T06:13:09;100813.59;;;7.73;100.00
29839;BME280;18669;53.356;-1.464;2023-02-01T06:15:35;100828.50;;;7.60;100.00
29839;BME280;18669;53.356;-1.464;2023-02-01T06:18:03;100835.50;;;7.59;100.00
29839;BME280;18669;53.356;-1.464;2023-02-01T06:20:30;100815.44;;;7.57;100.00
29839;BME280;18669;53.356;-1.464;2023-02-01T06:22:56;100811.03;;;7.64;100.00
29839;BME280;18669;53.356;-1.464;2023-02-01T06:25:22;100813.63;;;7.62;100.00
29839;BME280;18669;53.356;-1.464;2023-02-01T06:27:48;100809.28;;;7.66;100.00
29839;BME280;18669;53.356;-1.464;2023-02-01T06:30:14;100819.75;;;7.66;100.00
29839;BME280;18669;53.356;-1.464;2023-02-01T06:32:40;100820.66;;;7.61;100.00
29839;BME280;18669;53.356;-1.464;2023-02-01T06:35:08;100825.00;;;7.66;100.00
29839;BME280;18669;53.356;-1.464;2023-02-01T06:37:36;100828.47;;;7.66;100.00
29839;BME280;18669;53.356;-1.464;2023-02-01T06:40:03;100832.81;;;7.72;100.00
29839;BME280;18669;53.356;-1.464;2023-02-01T06:42:29;100833.72;;;7.68;100.00
29839;BME280;18669;53.356;-1.464;2023-02-01T06:44:55;100825.81;;;7.75;100.00
29839;BME280;18669;53.356;-1.464;2023-02-01T06:47:21;100844.16;;;7.69;100.00
29839;BME280;18669;53.356;-1.464;2023-02-01T06:49:47;100838.94;;;7.71;100.00
29839;BME280;18669;53.356;-1.464;2023-02-01T06:52:13;100829.31;;;7.74;100.00
29839;BME280;18669;53.356;-1.464;2023-02-01T06:54:38;100840.59;;;7.83;100.00
29839;BME280;18669;53.356;-1.464;2023-02-01T06:57:05;100823.16;;;7.77;100.00
29839;BME280;18669;53.356;-1.464;2023-02-01T06:59:30;100828.41;;;7.77;100.00
29839;BME280;18669;53.356;-1.464;2023-02-01T07:01:56;100828.28;;;7.97;100.00
29839;BME280;18669;53.356;-1.464;2023-02-01T07:04:22;100817.88;;;7.83;100.00
29839;BME280;18669;53.356;-1.464;2023-02-01T07:06:48;100819.72;;;7.72;100.00
29839;BME280;18669;53.356;-1.464;2023-02-01T07:09:14;100817.97;;;7.69;100.00
29839;BME280;18669;53.356;-1.464;2023-02-01T07:11:40;100821.47;;;7.71;100.00
29839;BME280;18669;53.356;-1.464;2023-02-01T07:14:10;100829.25;;;7.79;100.00
29839;BME280;18669;53.356;-1.464;2023-02-01T07:16:36;100836.34;;;7.61;100.00
29839;BME280;18669;53.356;-1.464;2023-02-01T07:19:02;100828.38;;;7.85;100.00
29839;BME280;18669;53.356;-1.464;2023-02-01T07:21:28;100838.88;;;7.77;100.00
29839;BME280;18669;53.356;-1.464;2023-02-01T07:23:54;100860.69;;;7.82;100.00
29839;BME280;18669;53.356;-1.464;2023-02-01T07:26:21;100867.66;;;7.86;100.00
29839;BME280;18669;53.356;-1.464;2023-02-01T07:28:47;100836.16;;;7.96;100.00
29839;BME280;18669;53.356;-1.464;2023-02-01T07:31:18;100850.00;;;8.13;100.00
29839;BME280;18669;53.356;-1.464;2023-02-01T07:33:49;100837.81;;;8.12;100.00
29839;BME280;18669;53.356;-1.464;2023-02-01T07:36:19;100841.31;;;8.11;100.00
29839;BME280;18669;53.356;-1.464;2023-02-01T07:38:45;100836.09;;;8.06;100.00
29839;BME280;18669;53.356;-1.464;2023-02-01T07:41:15;100835.25;;;8.03;100.00
29839;BME280;18669;53.356;-1.464;2023-02-01T07:43:41;100839.59;;;8.02;100.00
29839;BME280;18669;53.356;-1.464;2023-02-01T07:46:07;100838.78;;;7.96;100.00
29839;BME280;18669;53.356;-1.464;2023-02-01T07:48:33;100828.38;;;7.83;100.00
29839;BME280;18669;53.356;-1.464;2023-02-01T07:51:05;100836.22;;;7.86;100.00
29839;BME280;18669;53.356;-1.464;2023-02-01T07:53:33;100839.72;;;7.82;100.00
29839;BME280;18669;53.356;-1.464;2023-02-01T07:55:59;100854.63;;;7.69;100.00
29839;BME280;18669;53.356;-1.464;2023-02-01T07:58:25;100838.00;;;7.78;100.00
29839;BME280;18669;53.356;-1.464;2023-02-01T08:00:52;100852.88;;;7.73;100.00
29839;BME280;18669;53.356;-1.464;2023-02-01T08:03:36;100844.09;;;7.77;100.00
29839;BME280;18669;53.356;-1.464;2023-02-01T08:06:02;100849.34;;;7.82;100.00
29839;BME280;18669;53.356;-1.464;2023-02-01T08:08:28;100858.13;;;7.76;100.00
29839;BME280;18669;53.356;-1.464;2023-02-01T08:11:03;100854.53;;;7.94;100.00
29839;BME280;18669;53.356;-1.464;2023-02-01T08:13:30;100844.91;;;7.91;100.00
29839;BME280;18669;53.356;-1.464;2023-02-01T08:15:59;100832.66;;;7.95;100.00
29839;BME280;18669;53.356;-1.464;2023-02-01T08:18:26;100848.38;;;7.95;100.00
29839;BME280;18669;53.356;-1.464;2023-02-01T08:20:52;100846.66;;;7.93;100.00
29839;BME280;18669;53.356;-1.464;2023-02-01T08:23:19;100840.56;;;7.92;100.00
29839;BME280;18669;53.356;-1.464;2023-02-01T08:25:45;100849.28;;;7.94;100.00
29839;BME280;18669;53.356;-1.464;2023-02-01T08:28:12;100849.22;;;8.00;100.00
29839;BME280;18669;53.356;-1.464;2023-02-01T08:30:38;100851.78;;;8.11;100.00
29839;BME280;18669;53.356;-1.464;2023-02-01T08:33:05;100851.72;;;8.17;100.00
29839;BME280;18669;53.356;-1.464;2023-02-01T08:35:34;100866.59;;;8.15;100.00
29839;BME280;18669;53.356;-1.464;2023-02-01T08:38:00;100868.34;;;8.13;100.00
29839;BME280;18669;53.356;-1.464;2023-02-01T08:40:26;100856.97;;;8.17;100.00
29839;BME280;18669;53.356;-1.464;2023-02-01T08:45:29;100859.47;;;8.31;100.00
29839;BME280;18669;53.356;-1.464;2023-02-01T16:21:11;101122.53;;;9.72;100.00
29839;BME280;18669;53.356;-1.464;2023-02-01T16:23:38;101120.91;;;9.62;100.00
29839;BME280;18669;53.356;-1.464;2023-02-01T16:26:04;101112.16;;;9.63;100.00
29839;BME280;18669;53.356;-1.464;2023-02-01T16:28:31;101109.53;;;9.58;100.00
29839;BME280;18669;53.356;-1.464;2023-02-01T16:30:58;101105.13;;;9.65;100.00
29839;BME280;18669;53.356;-1.464;2023-02-01T16:33:25;101095.44;;;9.68;100.00
29839;BME280;18669;53.356;-1.464;2023-02-01T16:35:52;101113.84;;;9.68;100.00
29839;BME280;18669;53.356;-1.464;2023-02-01T16:38:19;101118.16;;;9.74;100.00
29839;BME280;18669;53.356;-1.464;2023-02-01T16:40:48;101113.81;;;9.72;100.00
29839;BME280;18669;53.356;-1.464;2023-02-01T16:43:20;101121.66;;;9.73;100.00
29839;BME280;18669;53.356;-1.464;2023-02-01T16:45:48;101118.09;;;9.80;100.00
29839;BME280;18669;53.356;-1.464;2023-02-01T16:48:30;101111.97;;;9.78;100.00
29839;BME280;18669;53.356;-1.464;2023-02-01T16:50:58;101113.84;;;9.68;100.00
29839;BME280;18669;53.356;-1.464;2023-02-01T16:53:27;101117.34;;;9.69;100.00
29839;BME280;18669;53.356;-1.464;2023-02-01T16:55:54;101112.13;;;9.66;100.00
29839;BME280;18669;53.356;-1.464;2023-02-01T16:58:26;101105.03;;;9.73;100.00
29839;BME280;18669;53.356;-1.464;2023-02-01T17:00:53;101118.22;;;9.69;100.00
29839;BME280;18669;53.356;-1.464;2023-02-01T17:03:20;101103.31;;;9.68;100.00
29839;BME280;18669;53.356;-1.464;2023-02-01T17:05:50;101102.44;;;9.69;100.00
29839;BME280;18669;53.356;-1.464;2023-02-01T17:08:38;101091.03;;;9.72;100.00
29839;BME280;18669;53.356;-1.464;2023-02-01T17:11:06;101092.06;;;9.54;100.00
29839;BME280;18669;53.356;-1.464;2023-02-01T17:13:33;101085.09;;;9.51;100.00
29839;BME280;18669;53.356;-1.464;2023-02-01T17:16:02;101097.31;;;9.55;100.00
29839;BME280;18669;53.356;-1.464;2023-02-01T17:18:32;101075.41;;;9.55;100.00
29839;BME280;18669;53.356;-1.464;2023-02-01T17:21:00;101069.41;;;9.44;100.00
29839;BME280;18669;53.356;-1.464;2023-02-01T17:23:28;101078.16;;;9.46;100.00
29839;BME280;18669;53.356;-1.464;2023-02-01T17:25:55;101057.13;;;9.46;100.00
29839;BME280;18669;53.356;-1.464;2023-02-01T17:28:22;101046.72;;;9.33;100.00
29839;BME280;18669;53.356;-1.464;2023-02-01T17:30:49;101048.56;;;9.27;100.00
29839;BME280;18669;53.356;-1.464;2023-02-01T17:33:27;101051.97;;;9.35;100.00
29839;BME280;18669;53.356;-1.464;2023-02-01T17:35:55;101049.34;;;9.33;100.00
29839;BME280;18669;53.356;-1.464;2023-02-01T17:38:23;101049.44;;;9.25;100.00
29839;BME280;18669;53.356;-1.464;2023-02-01T17:40:50;101047.72;;;9.21;100.00
29839;BME280;18669;53.356;-1.464;2023-02-01T17:43:23;101047.72;;;9.20;100.00
29839;BME280;18669;53.356;-1.464;2023-02-01T17:46:00;101036.41;;;9.13;100.00
29839;BME280;18669;53.356;-1.464;2023-02-01T17:48:27;101050.44;;;9.10;100.00
29839;BME280;18669;53.356;-1.464;2023-02-01T17:50:53;101053.06;;;9.07;100.00
29839;BME280;18669;53.356;-1.464;2023-02-01T17:53:24;101047.78;;;9.12;100.00
29839;BME280;18669;53.356;-1.464;2023-02-01T17:55:51;101045.19;;;9.10;100.00
29839;BME280;18669;53.356;-1.464;2023-02-01T17:58:17;101039.91;;;9.09;100.00
29839;BME280;18669;53.356;-1.464;2023-02-01T18:00:45;101054.78;;;9.13;100.00
29839;BME280;18669;53.356;-1.464;2023-02-01T18:03:26;101044.22;;;9.19;100.00
29839;BME280;18669;53.356;-1.464;2023-02-01T18:05:55;101045.94;;;9.22;100.00
29839;BME280;18669;53.356;-1.464;2023-02-01T18:08:27;101056.41;;;9.27;100.00
29839;BME280;18669;53.356;-1.464;2023-02-01T18:10:56;101037.19;;;9.24;100.00
29839;BME280;18669;53.356;-1.464;2023-02-01T18:13:26;101034.63;;;9.17;100.00
29839;BME280;18669;53.356;-1.464;2023-02-01T18:15:53;101043.38;;;9.17;100.00
29839;BME280;18669;53.356;-1.464;2023-02-01T18:18:20;101034.63;;;9.17;100.00
29839;BME280;18669;53.356;-1.464;2023-02-01T18:20:47;101037.25;;;9.17;100.00
29839;BME280;18669;53.356;-1.464;2023-02-01T18:23:16;101035.47;;;9.20;100.00
29839;BME280;18669;53.356;-1.464;2023-02-01T18:25:43;101045.13;;;9.17;100.00
29839;BME280;18669;53.356;-1.464;2023-02-01T18:28:15;101040.66;;;9.28;100.00
29839;BME280;18669;53.356;-1.464;2023-02-01T18:30:43;101050.28;;;9.28;100.00
29839;BME280;18669;53.356;-1.464;2023-02-01T18:33:12;101047.66;;;9.28;100.00
29839;BME280;18669;53.356;-1.464;2023-02-01T18:35:39;101057.28;;;9.29;100.00
29839;BME280;18669;53.356;-1.464;2023-02-01T18:38:05;101048.53;;;9.28;100.00
29839;BME280;18669;53.356;-1.464;2023-02-01T18:40:38;101043.28;;;9.28;100.00
29839;BME280;18669;53.356;-1.464;2023-02-01T18:43:05;101050.28;;;9.28;100.00
29839;BME280;18669;53.356;-1.464;2023-02-01T18:45:34;101047.69;;;9.23;100.00
29839;BME280;18669;53.356;-1.464;2023-02-01T18:48:01;101046.03;;;9.16;100.00
29839;BME280;18669;53.356;-1.464;2023-02-01T18:50:32;101067.72;;;9.33;100.00
29839;BME280;18669;53.356;-1.464;2023-02-01T18:53:00;101061.63;;;9.33;100.00
29839;BME280;18669;53.356;-1.464;2023-02-01T18:55:28;101076.53;;;9.28;100.00
29839;BME280;18669;53.356;-1.464;2023-02-01T18:58:00;101074.72;;;9.34;100.00
29839;BME280;18669;53.356;-1.464;2023-02-01T19:00:28;101077.44;;;9.23;100.00
29839;BME280;18669;53.356;-1.464;2023-02-01T19:02:55;101089.66;;;9.26;100.00
29839;BME280;18669;53.356;-1.464;2023-02-01T19:05:21;101072.22;;;9.19;100.00
29839;BME280;18669;53.356;-1.464;2023-02-01T19:07:47;101070.47;;;9.19;100.00
29839;BME280;18669;53.356;-1.464;2023-02-01T19:10:14;101070.44;;;9.25;100.00
29839;BME280;18669;53.356;-1.464;2023-02-01T19:12:41;101068.75;;;9.17;100.00
29839;BME280;18669;53.356;-1.464;2023-02-01T19:15:07;101072.16;;;9.28;100.00
29839;BME280;18669;53.356;-1.464;2023-02-01T19:17:42;101074.81;;;9.23;100.00
29839;BME280;18669;53.356;-1.464;2023-02-01T19:20:10;101073.94;;;9.24;100.00
29839;BME280;18669;53.356;-1.464;2023-02-01T19:22:37;101084.47;;;9.21;100.00
29839;BME280;18669;53.356;-1.464;2023-02-01T19:25:03;101077.47;;;9.20;100.00
29839;BME280;18669;53.356;-1.464;2023-02-01T19:27:31;101083.59;;;9.22;100.00
29839;BME280;18669;53.356;-1.464;2023-02-01T19:29:56;101096.59;;;9.36;100.00
29839;BME280;18669;53.356;-1.464;2023-02-01T19:32:22;101107.19;;;9.21;100.00
29839;BME280;18669;53.356;-1.464;2023-02-01T19:34:48;101095.81;;;9.25;100.00
29839;BME280;18669;53.356;-1.464;2023-02-01T19:37:14;101120.19;;;9.41;100.00
29839;BME280;18669;53.356;-1.464;2023-02-01T19:39:40;101122.91;;;9.29;100.00
29839;BME280;18669;53.356;-1.464;2023-02-01T19:42:07;101122.03;;;9.30;100.00
29839;BME280;18669;53.356;-1.464;2023-02-01T19:44:33;101127.31;;;9.27;100.00
29839;BME280;18669;53.356;-1.464;2023-02-01T19:47:00;101104.53;;;9.27;100.00
29839;BME280;18669;53.356;-1.464;2023-02-01T19:49:26;101116.81;;;9.27;100.00
29839;BME280;18669;53.356;-1.464;2023-02-01T19:51:52;101116.78;;;9.30;100.00
29839;BME280;18669;53.356;-1.464;2023-02-01T19:54:18;101121.03;;;9.48;100.00
29839;BME280;18669;53.356;-1.464;2023-02-01T19:56:45;101122.91;;;9.30;100.00
29839;BME280;18669;53.356;-1.464;2023-02-01T19:59:13;101120.31;;;9.25;100.00
29839;BME280;18669;53.356;-1.464;2023-02-01T20:01:39;101120.22;;;9.38;100.00
29839;BME280;18669;53.356;-1.464;2023-02-01T20:04:06;101110.72;;;9.20;100.00
29839;BME280;18669;53.356;-1.464;2023-02-01T20:06:37;101119.38;;;9.31;100.00
29839;BME280;18669;53.356;-1.464;2023-02-01T20:09:04;101122.03;;;9.28;100.00
29839;BME280;18669;53.356;-1.464;2023-02-01T20:11:30;101128.28;;;9.15;100.00
29839;BME280;18669;53.356;-1.464;2023-02-01T20:13:57;101121.22;;;9.21;100.00
29839;BME280;18669;53.356;-1.464;2023-02-01T20:16:25;101102.03;;;9.12;100.00
29839;BME280;18669;53.356;-1.464;2023-02-01T20:18:52;101100.25;;;9.15;100.00
29839;BME280;18669;53.356;-1.464;2023-02-01T20:21:18;101105.50;;;9.17;100.00
29839;BME280;18669;53.356;-1.464;2023-02-01T20:23:44;101099.47;;;9.05;100.00
29839;BME280;18669;53.356;-1.464;2023-02-01T20:26:14;101098.56;;;9.06;100.00
29839;BME280;18669;53.356;-1.464;2023-02-01T20:28:40;101105.53;;;9.09;100.00
29839;BME280;18669;53.356;-1.464;2023-02-01T20:31:07;101109.88;;;9.16;100.00
29839;BME280;18669;53.356;-1.464;2023-02-01T20:33:35;101107.31;;;9.07;100.00
29839;BME280;18669;53.356;-1.464;2023-02-01T20:36:01;101106.41;;;9.08;100.00
29839;BME280;18669;53.356;-1.464;2023-02-01T20:38:27;101116.97;;;9.02;100.00
29839;BME280;18669;53.356;-1.464;2023-02-01T20:41:00;101110.75;;;9.17;100.00
29839;BME280;18669;53.356;-1.464;2023-02-01T20:43:26;101110.91;;;8.93;100.00
29839;BME280;18669;53.356;-1.464;2023-02-01T20:45:52;101122.22;;;9.02;100.00
29839;BME280;18669;53.356;-1.464;2023-02-01T20:48:18;101120.50;;;8.93;100.00